createdAt,value
2023-06-18T00:03:44.944Z,16.80
2023-06-18T00:08:47.317Z,14.10
2023-06-18T00:13:49.281Z,13.60
2023-06-18T00:18:51.260Z,12.00
2023-06-18T00:23:53.076Z,13.70
2023-06-18T00:28:54.803Z,15.50
2023-06-18T00:33:57.036Z,11.90
2023-06-18T00:38:59.279Z,30.00
2023-06-18T00:44:01.014Z,33.20
2023-06-18T00:49:03.880Z,26.70
2023-06-18T00:54:05.759Z,21.50
2023-06-18T00:59:07.832Z,17.10
2023-06-18T01:04:09.596Z,16.00
2023-06-18T01:09:13.725Z,15.60
2023-06-18T01:14:15.771Z,19.20
2023-06-18T01:19:46.437Z,22.40
2023-06-18T01:24:55.669Z,17.00
2023-06-18T01:29:58.617Z,22.90
2023-06-18T01:35:01.351Z,18.80
2023-06-18T01:40:13.264Z,17.30
2023-06-18T01:45:25.101Z,20.00
2023-06-18T01:50:29.137Z,21.90
2023-06-18T01:55:34.696Z,22.90
2023-06-18T02:00:36.436Z,17.20
2023-06-18T02:05:38.238Z,20.40
2023-06-18T02:10:39.952Z,20.00
2023-06-18T02:15:43.214Z,23.40
2023-06-18T02:20:45.408Z,19.60
2023-06-18T02:25:48.046Z,21.00
2023-06-18T02:30:49.799Z,15.20
2023-06-18T02:35:51.546Z,25.10
2023-06-18T02:40:53.295Z,19.40
2023-06-18T02:45:55.103Z,14.30
2023-06-18T02:50:56.998Z,17.50
2023-06-18T02:55:58.889Z,18.80
2023-06-18T03:01:01.494Z,16.70
2023-06-18T03:06:05.646Z,14.60
2023-06-18T03:11:08.054Z,18.00
2023-06-18T03:16:11.336Z,18.90
2023-06-18T03:21:13.997Z,19.10
2023-06-18T03:26:16.540Z,16.30
2023-06-18T03:31:18.277Z,16.70
2023-06-18T03:36:20.918Z,14.80
2023-06-18T03:41:23.995Z,15.10
2023-06-18T03:46:26.144Z,16.20
2023-06-18T03:51:28.411Z,14.90
2023-06-18T03:56:30.920Z,13.10
2023-06-18T04:07:13.575Z,11.60
2023-06-18T04:12:15.595Z,12.50
2023-06-18T04:17:17.505Z,11.10
2023-06-18T04:22:19.468Z,11.60
2023-06-18T04:27:21.333Z,12.80
2023-06-18T04:32:23.422Z,13.20
2023-06-18T04:37:26.352Z,11.90
2023-06-18T04:42:30.085Z,12.50
2023-06-18T04:47:33.356Z,11.40
2023-06-18T04:52:35.725Z,11.20
2023-06-18T04:57:38.048Z,10.80
2023-06-18T05:02:40.151Z,12.70
2023-06-18T05:07:43.082Z,14.20
2023-06-18T05:12:45.490Z,14.10
2023-06-18T05:17:47.560Z,16.70
2023-06-18T05:22:52.930Z,11.20
2023-06-18T05:27:54.762Z,9.90
2023-06-18T05:32:56.966Z,12.90
2023-06-18T05:37:58.812Z,10.10
2023-06-18T05:43:01.214Z,10.50
2023-06-18T05:48:04.630Z,11.10
2023-06-18T05:53:16.038Z,8.90
2023-06-18T05:58:18.210Z,8.10
2023-06-18T06:03:20.066Z,9.90
2023-06-18T06:08:22.670Z,9.70
2023-06-18T06:13:29.285Z,9.60
2023-06-18T06:18:34.582Z,9.50
2023-06-18T06:23:36.705Z,8.30
2023-06-18T06:28:39.609Z,10.50
2023-06-18T06:33:42.392Z,9.20
2023-06-18T06:38:44.692Z,9.90
2023-06-18T06:43:46.947Z,8.20
2023-06-18T06:49:10.932Z,8.90
2023-06-18T06:54:32.321Z,7.70
2023-06-18T06:59:34.062Z,7.30
2023-06-18T07:04:36.006Z,8.40
2023-06-18T07:09:37.729Z,9.00
2023-06-18T07:14:39.508Z,8.00
2023-06-18T07:19:41.253Z,7.70
2023-06-18T07:24:43.493Z,7.60
2023-06-18T07:29:45.518Z,8.10
2023-06-18T07:34:47.242Z,7.00
2023-06-18T07:39:48.928Z,7.90
2023-06-18T07:44:52.875Z,8.30
2023-06-18T07:49:54.913Z,7.70
2023-06-18T07:54:56.641Z,7.80
2023-06-18T07:59:59.051Z,8.00
2023-06-18T08:10:04.256Z,7.90
2023-06-18T08:15:06.742Z,7.50
2023-06-18T08:20:09.433Z,7.90
2023-06-18T08:25:11.240Z,9.20
2023-06-18T08:30:42.649Z,8.00
2023-06-18T08:35:44.490Z,7.60
2023-06-18T08:41:03.387Z,6.80
2023-06-18T08:46:12.294Z,6.00
2023-06-18T08:51:17.178Z,8.30
2023-06-18T08:56:23.452Z,10.90
2023-06-18T09:01:26.926Z,9.00
2023-06-18T09:06:30.649Z,9.10
2023-06-18T09:11:37.367Z,9.50
2023-06-18T09:16:39.718Z,8.30
2023-06-18T09:21:44.228Z,8.80
2023-06-18T09:26:46.628Z,6.20
2023-06-18T09:31:48.336Z,6.60
2023-06-18T09:36:51.613Z,9.80
2023-06-18T09:41:56.646Z,7.80
2023-06-18T09:46:59.104Z,7.80
2023-06-18T09:52:06.131Z,8.50
2023-06-18T09:57:11.623Z,8.00
2023-06-18T10:02:25.066Z,7.40
2023-06-18T10:07:27.084Z,8.20
2023-06-18T10:12:29.216Z,7.60
2023-06-18T10:17:35.829Z,6.00
2023-06-18T10:22:50.070Z,5.80
2023-06-18T10:27:51.925Z,5.90
2023-06-18T10:32:55.123Z,5.80
2023-06-18T10:37:58.153Z,6.50
2023-06-18T10:43:05.302Z,5.80
2023-06-18T10:48:17.420Z,4.80
2023-06-18T10:53:25.369Z,6.50
2023-06-18T10:58:35.014Z,6.00
2023-06-18T11:03:38.990Z,5.90
2023-06-18T11:08:40.947Z,5.30
2023-06-18T11:13:54.791Z,5.50
2023-06-18T11:19:01.898Z,5.70
2023-06-18T11:24:04.256Z,6.60
2023-06-18T11:29:07.312Z,5.60
2023-06-18T11:40:48.291Z,6.20
2023-06-18T11:45:52.098Z,6.80
2023-06-18T11:50:58.601Z,6.40
2023-06-18T11:56:00.932Z,6.70
2023-06-18T12:01:03.265Z,6.50
2023-06-18T12:06:17.571Z,5.70
2023-06-18T12:11:45.103Z,5.70
2023-06-18T12:16:57.374Z,6.10
2023-06-18T12:22:09.806Z,5.90
2023-06-18T12:27:12.325Z,6.30
2023-06-18T12:32:14.169Z,6.50
2023-06-18T12:37:18.671Z,6.40
2023-06-18T12:42:21.751Z,5.40
2023-06-18T12:47:23.579Z,5.90
2023-06-18T12:52:28.160Z,5.70
2023-06-18T12:57:30.249Z,5.70
2023-06-18T13:02:32.743Z,6.20
2023-06-18T13:40:22.655Z,5.90
2023-06-18T13:45:25.009Z,6.20
2023-06-18T13:50:27.442Z,4.00
2023-06-18T13:55:29.356Z,3.20
2023-06-18T14:00:31.751Z,4.00
2023-06-18T14:05:37.154Z,3.40
2023-06-18T14:10:39.398Z,3.80
2023-06-18T14:15:41.278Z,3.60
2023-06-18T14:20:43.000Z,4.00
2023-06-18T14:25:46.568Z,3.80
2023-06-18T14:30:55.854Z,3.90
2023-06-18T14:35:57.599Z,3.40
2023-06-18T14:40:59.303Z,3.20
2023-06-18T14:46:01.069Z,3.00
2023-06-18T14:51:03.544Z,2.70
2023-06-18T14:56:05.889Z,3.60
2023-06-18T15:01:09.600Z,3.70
2023-06-18T15:06:11.549Z,4.20
2023-06-18T15:11:13.366Z,3.50
2023-06-18T15:16:15.484Z,3.50
2023-06-18T15:21:17.357Z,3.50
2023-06-18T15:26:22.186Z,3.50
2023-06-18T15:31:24.019Z,3.60
2023-06-18T15:36:25.800Z,3.90
2023-06-18T15:41:27.657Z,3.50
2023-06-18T15:46:29.454Z,3.40
2023-06-18T15:51:33.425Z,4.00
2023-06-18T15:56:35.796Z,3.70
2023-06-18T16:01:37.826Z,3.20
2023-06-18T16:06:39.870Z,5.50
2023-06-18T16:11:41.762Z,3.50
2023-06-18T16:16:44.327Z,3.80
2023-06-18T16:21:46.290Z,3.80
2023-06-18T16:26:48.028Z,3.80
2023-06-18T16:32:00.068Z,4.10
2023-06-18T16:37:02.369Z,5.20
2023-06-18T16:42:04.601Z,3.90
2023-06-18T16:47:06.863Z,3.40
2023-06-18T16:52:08.617Z,3.70
2023-06-18T16:57:10.514Z,3.70
2023-06-18T17:02:12.321Z,5.00
2023-06-18T17:07:16.029Z,3.40
2023-06-18T17:12:18.166Z,4.10
2023-06-18T17:17:25.724Z,4.60
2023-06-18T17:22:27.600Z,3.80
2023-06-18T17:27:29.556Z,3.80
2023-06-18T17:32:31.698Z,4.30
2023-06-18T17:37:33.413Z,4.00
2023-06-18T17:42:35.170Z,5.20
2023-06-18T17:47:37.258Z,5.00
2023-06-18T17:52:39.016Z,5.50
2023-06-18T17:57:42.187Z,6.00
2023-06-18T18:02:44.239Z,5.00
2023-06-18T18:07:46.362Z,5.40
2023-06-18T18:12:48.319Z,5.50
2023-06-18T18:17:50.178Z,4.90
2023-06-18T18:22:52.046Z,4.80
2023-06-18T18:27:54.303Z,4.90
2023-06-18T18:32:56.098Z,5.70
2023-06-18T18:37:58.751Z,7.00
2023-06-18T18:43:00.679Z,5.30
2023-06-18T18:48:02.597Z,6.50
2023-06-18T18:53:04.393Z,6.30
2023-06-18T18:58:07.203Z,7.00
2023-06-18T19:03:09.623Z,7.00
2023-06-18T19:08:11.543Z,6.60
2023-06-18T19:13:23.593Z,6.60
2023-06-18T19:18:25.783Z,6.90
2023-06-18T19:23:27.537Z,9.70
2023-06-18T19:28:32.135Z,10.20
2023-06-18T19:33:33.860Z,8.50
2023-06-18T19:38:35.787Z,11.70
2023-06-18T19:43:38.473Z,11.50
2023-06-18T19:48:40.190Z,13.20
2023-06-18T19:53:41.988Z,12.20
2023-06-18T19:58:43.819Z,9.90
2023-06-18T20:03:46.377Z,10.10
2023-06-18T20:08:48.531Z,9.60
2023-06-18T20:13:53.570Z,8.70
2023-06-18T20:18:56.363Z,9.60
2023-06-18T20:23:58.284Z,16.80
2023-06-18T20:29:03.087Z,16.80
2023-06-18T20:34:05.271Z,12.70
2023-06-18T20:39:07.063Z,9.10
2023-06-18T20:44:09.008Z,9.80
2023-06-18T20:49:12.618Z,9.40
2023-06-18T20:54:14.646Z,9.40
2023-06-18T20:59:16.465Z,7.30
2023-06-18T21:04:18.580Z,9.90
2023-06-18T21:09:20.633Z,11.70
2023-06-18T21:14:26.709Z,10.40
2023-06-18T21:19:29.060Z,10.50
2023-06-18T21:24:30.897Z,12.70
2023-06-18T21:29:32.883Z,10.90
2023-06-18T21:34:34.603Z,12.30
2023-06-18T21:39:36.410Z,10.20
2023-06-18T21:44:38.502Z,10.40
2023-06-18T21:49:40.310Z,10.20
2023-06-18T21:54:42.663Z,9.50
2023-06-18T21:59:45.278Z,13.30
2023-06-18T22:04:48.589Z,10.70
2023-06-18T22:09:50.407Z,11.80
2023-06-18T22:14:52.656Z,14.60
2023-06-18T22:19:54.539Z,10.40
2023-06-18T22:24:56.300Z,13.50
2023-06-18T22:29:59.989Z,9.20
2023-06-18T22:35:01.827Z,8.70
2023-06-18T22:40:10.698Z,9.80
2023-06-18T22:45:12.577Z,13.20
2023-06-18T22:50:14.473Z,8.70
2023-06-18T22:55:16.250Z,10.20
2023-06-18T23:00:18.117Z,12.60
2023-06-18T23:05:20.099Z,15.80
2023-06-18T23:10:26.327Z,16.40
2023-06-18T23:15:34.326Z,18.00
2023-06-18T23:20:39.093Z,18.80
2023-06-18T23:25:40.885Z,17.70
2023-06-18T23:30:42.649Z,13.60
2023-06-18T23:35:44.942Z,16.70
2023-06-18T23:40:46.784Z,22.70
2023-06-18T23:45:48.640Z,15.90
2023-06-18T23:51:10.403Z,18.40
2023-06-18T23:56:12.190Z,20.30
